sensor_id;sensor_type;location;lat;lon;timestamp;P1;durP1;ratioP1;P2;durP2;ratioP2
60582;SDS011;46415;47.536;19.066;2023-03-05T00:01:14;6.55;;;3.83;;
60582;SDS011;46415;47.536;19.066;2023-03-05T00:04:19;5.03;;;3.87;;
60582;SDS011;46415;47.536;19.066;2023-03-05T00:07:22;5.45;;;4.85;;
60582;SDS011;46415;47.536;19.066;2023-03-05T00:10:25;5.57;;;4.00;;
60582;SDS011;46415;47.536;19.066;2023-03-05T00:13:28;6.93;;;3.30;;
60582;SDS011;46415;47.536;19.066;2023-03-05T00:16:31;5.53;;;4.55;;
60582;SDS011;46415;47.536;19.066;2023-03-05T00:19:34;6.53;;;4.05;;
60582;SDS011;46415;47.536;19.066;2023-03-05T00:22:37;5.37;;;4.53;;
60582;SDS011;46415;47.536;19.066;2023-03-05T00:25:39;5.85;;;4.22;;
60582;SDS011;46415;47.536;19.066;2023-03-05T00:28:43;4.35;;;3.53;;
60582;SDS011;46415;47.536;19.066;2023-03-05T00:31:46;6.80;;;4.37;;
60582;SDS011;46415;47.536;19.066;2023-03-05T00:34:49;7.20;;;4.03;;
60582;SDS011;46415;47.536;19.066;2023-03-05T00:37:52;4.75;;;4.20;;
60582;SDS011;46415;47.536;19.066;2023-03-05T00:40:55;7.65;;;4.15;;
60582;SDS011;46415;47.536;19.066;2023-03-05T00:43:58;9.77;;;4.62;;
60582;SDS011;46415;47.536;19.066;2023-03-05T00:47:01;7.35;;;4.47;;
60582;SDS011;46415;47.536;19.066;2023-03-05T00:50:04;7.03;;;3.53;;
60582;SDS011;46415;47.536;19.066;2023-03-05T00:53:08;7.28;;;4.00;;
60582;SDS011;46415;47.536;19.066;2023-03-05T00:56:11;6.32;;;3.83;;
60582;SDS011;46415;47.536;19.066;2023-03-05T00:59:14;10.40;;;4.20;;
60582;SDS011;46415;47.536;19.066;2023-03-05T01:02:17;4.68;;;3.85;;
60582;SDS011;46415;47.536;19.066;2023-03-05T01:05:20;7.50;;;4.30;;
60582;SDS011;46415;47.536;19.066;2023-03-05T01:08:24;4.07;;;3.40;;
60582;SDS011;46415;47.536;19.066;2023-03-05T01:11:27;4.90;;;3.30;;
60582;SDS011;46415;47.536;19.066;2023-03-05T01:14:30;4.35;;;3.35;;
60582;SDS011;46415;47.536;19.066;2023-03-05T01:17:33;5.03;;;3.22;;
60582;SDS011;46415;47.536;19.066;2023-03-05T01:20:36;4.60;;;3.47;;
60582;SDS011;46415;47.536;19.066;2023-03-05T01:23:39;4.35;;;3.28;;
60582;SDS011;46415;47.536;19.066;2023-03-05T01:26:42;6.70;;;4.30;;
60582;SDS011;46415;47.536;19.066;2023-03-05T01:29:45;8.90;;;4.43;;
60582;SDS011;46415;47.536;19.066;2023-03-05T01:32:47;5.87;;;3.75;;
60582;SDS011;46415;47.536;19.066;2023-03-05T01:35:50;4.62;;;3.90;;
60582;SDS011;46415;47.536;19.066;2023-03-05T01:38:53;6.00;;;4.72;;
60582;SDS011;46415;47.536;19.066;2023-03-05T01:41:56;3.72;;;2.72;;
60582;SDS011;46415;47.536;19.066;2023-03-05T01:45:00;4.93;;;3.62;;
60582;SDS011;46415;47.536;19.066;2023-03-05T01:48:04;3.62;;;3.25;;
60582;SDS011;46415;47.536;19.066;2023-03-05T01:51:06;5.70;;;3.90;;
60582;SDS011;46415;47.536;19.066;2023-03-05T01:54:10;7.20;;;3.55;;
60582;SDS011;46415;47.536;19.066;2023-03-05T01:57:18;4.72;;;3.65;;
60582;SDS011;46415;47.536;19.066;2023-03-05T02:00:25;7.43;;;4.53;;
60582;SDS011;46415;47.536;19.066;2023-03-05T02:03:32;5.20;;;3.70;;
60582;SDS011;46415;47.536;19.066;2023-03-05T02:06:36;7.00;;;3.70;;
60582;SDS011;46415;47.536;19.066;2023-03-05T02:09:40;7.55;;;3.80;;
60582;SDS011;46415;47.536;19.066;2023-03-05T02:12:43;5.40;;;3.83;;
60582;SDS011;46415;47.536;19.066;2023-03-05T02:15:46;4.28;;;3.65;;
60582;SDS011;46415;47.536;19.066;2023-03-05T02:18:51;4.40;;;3.78;;
60582;SDS011;46415;47.536;19.066;2023-03-05T02:21:54;6.70;;;3.72;;
60582;SDS011;46415;47.536;19.066;2023-03-05T02:24:57;4.78;;;4.05;;
60582;SDS011;46415;47.536;19.066;2023-03-05T02:31:19;9.15;;;4.65;;
60582;SDS011;46415;47.536;19.066;2023-03-05T02:34:24;9.60;;;3.85;;
60582;SDS011;46415;47.536;19.066;2023-03-05T02:37:26;4.90;;;3.53;;
60582;SDS011;46415;47.536;19.066;2023-03-05T02:40:29;8.13;;;3.55;;
60582;SDS011;46415;47.536;19.066;2023-03-05T02:43:32;6.40;;;4.37;;
60582;SDS011;46415;47.536;19.066;2023-03-05T02:46:35;4.25;;;3.83;;
60582;SDS011;46415;47.536;19.066;2023-03-05T02:49:39;6.07;;;3.95;;
60582;SDS011;46415;47.536;19.066;2023-03-05T02:52:41;5.32;;;3.90;;
60582;SDS011;46415;47.536;19.066;2023-03-05T02:55:45;4.45;;;3.70;;
60582;SDS011;46415;47.536;19.066;2023-03-05T02:58:49;7.82;;;3.95;;
60582;SDS011;46415;47.536;19.066;2023-03-05T03:01:52;5.20;;;3.40;;
60582;SDS011;46415;47.536;19.066;2023-03-05T03:04:54;5.62;;;3.12;;
60582;SDS011;46415;47.536;19.066;2023-03-05T03:07:57;5.22;;;2.90;;
60582;SDS011;46415;47.536;19.066;2023-03-05T03:11:07;4.28;;;3.12;;
60582;SDS011;46415;47.536;19.066;2023-03-05T03:14:11;4.55;;;2.75;;
60582;SDS011;46415;47.536;19.066;2023-03-05T03:17:15;9.18;;;3.55;;
60582;SDS011;46415;47.536;19.066;2023-03-05T03:20:19;5.72;;;3.78;;
60582;SDS011;46415;47.536;19.066;2023-03-05T03:23:22;9.32;;;3.67;;
60582;SDS011;46415;47.536;19.066;2023-03-05T03:26:25;5.65;;;2.85;;
60582;SDS011;46415;47.536;19.066;2023-03-05T03:29:28;7.20;;;3.15;;
60582;SDS011;46415;47.536;19.066;2023-03-05T03:32:32;3.55;;;2.92;;
60582;SDS011;46415;47.536;19.066;2023-03-05T03:35:35;7.15;;;3.25;;
60582;SDS011;46415;47.536;19.066;2023-03-05T03:38:38;5.00;;;3.17;;
60582;SDS011;46415;47.536;19.066;2023-03-05T03:41:42;3.00;;;2.65;;
60582;SDS011;46415;47.536;19.066;2023-03-05T03:44:46;3.08;;;2.78;;
60582;SDS011;46415;47.536;19.066;2023-03-05T03:47:50;9.23;;;3.83;;
60582;SDS011;46415;47.536;19.066;2023-03-05T03:50:53;6.12;;;3.78;;
60582;SDS011;46415;47.536;19.066;2023-03-05T03:53:55;2.62;;;2.42;;
60582;SDS011;46415;47.536;19.066;2023-03-05T03:56:58;6.97;;;3.53;;
60582;SDS011;46415;47.536;19.066;2023-03-05T04:00:01;3.35;;;2.10;;
60582;SDS011;46415;47.536;19.066;2023-03-05T04:03:13;3.00;;;2.70;;
60582;SDS011;46415;47.536;19.066;2023-03-05T04:06:16;4.65;;;3.17;;
60582;SDS011;46415;47.536;19.066;2023-03-05T04:09:18;4.35;;;3.92;;
60582;SDS011;46415;47.536;19.066;2023-03-05T04:12:21;5.78;;;3.92;;
60582;SDS011;46415;47.536;19.066;2023-03-05T04:15:24;3.97;;;3.10;;
60582;SDS011;46415;47.536;19.066;2023-03-05T04:18:27;6.15;;;3.83;;
60582;SDS011;46415;47.536;19.066;2023-03-05T04:21:32;5.28;;;2.80;;
60582;SDS011;46415;47.536;19.066;2023-03-05T04:24:35;6.87;;;3.03;;
60582;SDS011;46415;47.536;19.066;2023-03-05T04:27:37;7.07;;;3.30;;
60582;SDS011;46415;47.536;19.066;2023-03-05T04:30:42;5.45;;;3.22;;
60582;SDS011;46415;47.536;19.066;2023-03-05T04:33:44;13.05;;;3.53;;
60582;SDS011;46415;47.536;19.066;2023-03-05T04:36:47;4.85;;;3.35;;
60582;SDS011;46415;47.536;19.066;2023-03-05T04:39:51;5.93;;;3.97;;
60582;SDS011;46415;47.536;19.066;2023-03-05T04:42:54;5.80;;;3.62;;
60582;SDS011;46415;47.536;19.066;2023-03-05T04:45:57;5.55;;;4.12;;
60582;SDS011;46415;47.536;19.066;2023-03-05T04:49:00;4.30;;;3.05;;
60582;SDS011;46415;47.536;19.066;2023-03-05T04:52:03;4.57;;;3.70;;
60582;SDS011;46415;47.536;19.066;2023-03-05T04:55:06;5.97;;;3.62;;
60582;SDS011;46415;47.536;19.066;2023-03-05T04:58:09;4.37;;;2.80;;
60582;SDS011;46415;47.536;19.066;2023-03-05T05:01:13;4.32;;;3.87;;
60582;SDS011;46415;47.536;19.066;2023-03-05T05:04:16;5.57;;;3.42;;
60582;SDS011;46415;47.536;19.066;2023-03-05T05:07:18;5.25;;;3.08;;
60582;SDS011;46415;47.536;19.066;2023-03-05T05:10:22;7.45;;;3.78;;
60582;SDS011;46415;47.536;19.066;2023-03-05T05:13:26;3.40;;;3.10;;
60582;SDS011;46415;47.536;19.066;2023-03-05T05:16:29;5.47;;;3.45;;
60582;SDS011;46415;47.536;19.066;2023-03-05T05:19:32;9.90;;;4.47;;
60582;SDS011;46415;47.536;19.066;2023-03-05T05:22:36;3.08;;;2.65;;
60582;SDS011;46415;47.536;19.066;2023-03-05T05:25:39;5.15;;;3.50;;
60582;SDS011;46415;47.536;19.066;2023-03-05T05:28:42;6.85;;;4.07;;
60582;SDS011;46415;47.536;19.066;2023-03-05T05:31:45;5.55;;;4.22;;
60582;SDS011;46415;47.536;19.066;2023-03-05T05:34:52;8.65;;;3.35;;
60582;SDS011;46415;47.536;19.066;2023-03-05T05:37:56;11.02;;;4.07;;
60582;SDS011;46415;47.536;19.066;2023-03-05T05:41:03;5.75;;;3.37;;
60582;SDS011;46415;47.536;19.066;2023-03-05T05:44:08;4.18;;;3.30;;
60582;SDS011;46415;47.536;19.066;2023-03-05T05:47:10;7.65;;;4.57;;
60582;SDS011;46415;47.536;19.066;2023-03-05T05:50:13;6.60;;;4.07;;
60582;SDS011;46415;47.536;19.066;2023-03-05T05:53:16;5.85;;;4.35;;
60582;SDS011;46415;47.536;19.066;2023-03-05T05:56:19;9.73;;;3.58;;
60582;SDS011;46415;47.536;19.066;2023-03-05T05:59:22;8.35;;;4.00;;
60582;SDS011;46415;47.536;19.066;2023-03-05T06:02:25;8.77;;;4.85;;
60582;SDS011;46415;47.536;19.066;2023-03-05T06:05:29;5.60;;;3.72;;
60582;SDS011;46415;47.536;19.066;2023-03-05T06:08:31;6.00;;;3.35;;
60582;SDS011;46415;47.536;19.066;2023-03-05T06:11:35;6.45;;;4.25;;
60582;SDS011;46415;47.536;19.066;2023-03-05T06:14:38;5.60;;;3.72;;
60582;SDS011;46415;47.536;19.066;2023-03-05T06:17:41;6.75;;;4.32;;
60582;SDS011;46415;47.536;19.066;2023-03-05T06:20:43;8.50;;;4.43;;
60582;SDS011;46415;47.536;19.066;2023-03-05T06:23:46;6.68;;;4.50;;
60582;SDS011;46415;47.536;19.066;2023-03-05T06:26:50;10.73;;;4.90;;
60582;SDS011;46415;47.536;19.066;2023-03-05T06:29:53;7.18;;;4.90;;
60582;SDS011;46415;47.536;19.066;2023-03-05T06:32:57;9.10;;;5.00;;
60582;SDS011;46415;47.536;19.066;2023-03-05T06:36:02;11.07;;;5.22;;
60582;SDS011;46415;47.536;19.066;2023-03-05T06:39:08;8.27;;;4.18;;
60582;SDS011;46415;47.536;19.066;2023-03-05T06:42:11;8.40;;;5.03;;
60582;SDS011;46415;47.536;19.066;2023-03-05T06:45:14;9.30;;;4.28;;
60582;SDS011;46415;47.536;19.066;2023-03-05T06:48:17;8.02;;;4.85;;
60582;SDS011;46415;47.536;19.066;2023-03-05T06:51:21;7.28;;;4.60;;
60582;SDS011;46415;47.536;19.066;2023-03-05T06:54:26;7.32;;;5.20;;
60582;SDS011;46415;47.536;19.066;2023-03-05T06:57:28;9.02;;;4.47;;
60582;SDS011;46415;47.536;19.066;2023-03-05T07:00:31;14.80;;;6.20;;
60582;SDS011;46415;47.536;19.066;2023-03-05T07:03:34;8.40;;;5.35;;
60582;SDS011;46415;47.536;19.066;2023-03-05T07:06:38;6.65;;;4.22;;
60582;SDS011;46415;47.536;19.066;2023-03-05T07:09:43;7.82;;;4.47;;
60582;SDS011;46415;47.536;19.066;2023-03-05T07:12:47;9.38;;;5.93;;
60582;SDS011;46415;47.536;19.066;2023-03-05T07:15:50;20.45;;;5.62;;
60582;SDS011;46415;47.536;19.066;2023-03-05T07:18:54;9.00;;;5.50;;
60582;SDS011;46415;47.536;19.066;2023-03-05T07:21:58;12.73;;;5.35;;
60582;SDS011;46415;47.536;19.066;2023-03-05T07:25:02;10.63;;;5.15;;
60582;SDS011;46415;47.536;19.066;2023-03-05T07:28:05;6.78;;;5.30;;
60582;SDS011;46415;47.536;19.066;2023-03-05T07:31:22;7.07;;;4.85;;
60582;SDS011;46415;47.536;19.066;2023-03-05T07:34:28;9.35;;;5.18;;
60582;SDS011;46415;47.536;19.066;2023-03-05T07:37:31;9.38;;;6.82;;
60582;SDS011;46415;47.536;19.066;2023-03-05T07:40:34;10.93;;;5.97;;
60582;SDS011;46415;47.536;19.066;2023-03-05T07:43:37;8.23;;;5.00;;
60582;SDS011;46415;47.536;19.066;2023-03-05T07:46:40;13.80;;;5.20;;
60582;SDS011;46415;47.536;19.066;2023-03-05T07:49:43;9.00;;;4.70;;
60582;SDS011;46415;47.536;19.066;2023-03-05T07:52:46;12.68;;;5.28;;
60582;SDS011;46415;47.536;19.066;2023-03-05T07:55:49;7.85;;;4.90;;
60582;SDS011;46415;47.536;19.066;2023-03-05T07:58:51;10.15;;;5.62;;
60582;SDS011;46415;47.536;19.066;2023-03-05T08:01:55;11.43;;;5.80;;
60582;SDS011;46415;47.536;19.066;2023-03-05T08:04:58;9.18;;;5.22;;
60582;SDS011;46415;47.536;19.066;2023-03-05T08:08:01;9.98;;;5.12;;
60582;SDS011;46415;47.536;19.066;2023-03-05T08:11:05;13.00;;;5.95;;
60582;SDS011;46415;47.536;19.066;2023-03-05T08:14:09;5.85;;;4.15;;
60582;SDS011;46415;47.536;19.066;2023-03-05T08:17:13;6.60;;;4.57;;
60582;SDS011;46415;47.536;19.066;2023-03-05T08:20:15;13.60;;;4.53;;
60582;SDS011;46415;47.536;19.066;2023-03-05T08:23:20;7.80;;;4.97;;
60582;SDS011;46415;47.536;19.066;2023-03-05T08:26:23;6.70;;;4.80;;
60582;SDS011;46415;47.536;19.066;2023-03-05T08:29:27;12.32;;;6.07;;
60582;SDS011;46415;47.536;19.066;2023-03-05T08:32:30;10.23;;;5.47;;
60582;SDS011;46415;47.536;19.066;2023-03-05T08:35:33;10.75;;;5.37;;
60582;SDS011;46415;47.536;19.066;2023-03-05T08:38:36;9.43;;;5.47;;
60582;SDS011;46415;47.536;19.066;2023-03-05T08:41:39;10.77;;;5.55;;
60582;SDS011;46415;47.536;19.066;2023-03-05T08:44:42;12.07;;;5.62;;
60582;SDS011;46415;47.536;19.066;2023-03-05T08:47:45;11.85;;;5.95;;
60582;SDS011;46415;47.536;19.066;2023-03-05T08:50:47;9.20;;;5.50;;
60582;SDS011;46415;47.536;19.066;2023-03-05T08:53:51;9.18;;;4.78;;
60582;SDS011;46415;47.536;19.066;2023-03-05T08:56:56;10.80;;;5.65;;
60582;SDS011;46415;47.536;19.066;2023-03-05T08:59:59;11.10;;;5.72;;
60582;SDS011;46415;47.536;19.066;2023-03-05T09:03:01;12.13;;;6.03;;
60582;SDS011;46415;47.536;19.066;2023-03-05T09:06:06;8.48;;;5.53;;
60582;SDS011;46415;47.536;19.066;2023-03-05T09:09:10;8.85;;;6.15;;
60582;SDS011;46415;47.536;19.066;2023-03-05T09:12:15;12.95;;;5.90;;
60582;SDS011;46415;47.536;19.066;2023-03-05T09:15:17;8.95;;;5.53;;
60582;SDS011;46415;47.536;19.066;2023-03-05T09:18:20;12.55;;;5.40;;
60582;SDS011;46415;47.536;19.066;2023-03-05T09:21:23;8.80;;;5.60;;
60582;SDS011;46415;47.536;19.066;2023-03-05T09:24:26;11.55;;;6.12;;
60582;SDS011;46415;47.536;19.066;2023-03-05T09:27:31;13.95;;;6.72;;
60582;SDS011;46415;47.536;19.066;2023-03-05T09:30:35;10.40;;;6.53;;
60582;SDS011;46415;47.536;19.066;2023-03-05T09:33:38;12.60;;;6.60;;
60582;SDS011;46415;47.536;19.066;2023-03-05T09:36:41;8.68;;;6.22;;
60582;SDS011;46415;47.536;19.066;2023-03-05T09:39:44;9.85;;;5.80;;
60582;SDS011;46415;47.536;19.066;2023-03-05T09:52:38;8.50;;;5.68;;
60582;SDS011;46415;47.536;19.066;2023-03-05T09:55:52;11.18;;;6.70;;
60582;SDS011;46415;47.536;19.066;2023-03-05T09:58:58;9.00;;;5.37;;
60582;SDS011;46415;47.536;19.066;2023-03-05T10:02:17;9.38;;;6.20;;
60582;SDS011;46415;47.536;19.066;2023-03-05T10:12:17;11.12;;;4.82;;
60582;SDS011;46415;47.536;19.066;2023-03-05T10:15:31;8.23;;;5.65;;
60582;SDS011;46415;47.536;19.066;2023-03-05T10:22:13;10.52;;;6.00;;
60582;SDS011;46415;47.536;19.066;2023-03-05T10:25:28;6.97;;;5.00;;
60582;SDS011;46415;47.536;19.066;2023-03-05T10:32:53;7.68;;;5.55;;
60582;SDS011;46415;47.536;19.066;2023-03-05T10:36:11;8.65;;;5.30;;
60582;SDS011;46415;47.536;19.066;2023-03-05T10:46:00;4.03;;;3.60;;
60582;SDS011;46415;47.536;19.066;2023-03-05T10:49:16;6.22;;;4.55;;
60582;SDS011;46415;47.536;19.066;2023-03-05T10:52:28;5.72;;;3.97;;
60582;SDS011;46415;47.536;19.066;2023-03-05T10:55:36;7.37;;;4.97;;
60582;SDS011;46415;47.536;19.066;2023-03-05T10:58:39;6.78;;;5.22;;
60582;SDS011;46415;47.536;19.066;2023-03-05T11:01:41;7.65;;;5.03;;
60582;SDS011;46415;47.536;19.066;2023-03-05T11:05:03;8.23;;;5.62;;
60582;SDS011;46415;47.536;19.066;2023-03-05T11:11:31;8.30;;;5.20;;
60582;SDS011;46415;47.536;19.066;2023-03-05T11:14:35;8.75;;;4.82;;
60582;SDS011;46415;47.536;19.066;2023-03-05T11:17:45;8.68;;;4.93;;
60582;SDS011;46415;47.536;19.066;2023-03-05T11:20:50;9.88;;;5.15;;
60582;SDS011;46415;47.536;19.066;2023-03-05T11:24:03;8.90;;;5.05;;
60582;SDS011;46415;47.536;19.066;2023-03-05T11:27:22;7.82;;;5.68;;
60582;SDS011;46415;47.536;19.066;2023-03-05T11:30:34;10.65;;;5.47;;
60582;SDS011;46415;47.536;19.066;2023-03-05T11:33:37;10.00;;;5.05;;
60582;SDS011;46415;47.536;19.066;2023-03-05T11:36:42;9.43;;;5.45;;
60582;SDS011;46415;47.536;19.066;2023-03-05T11:43:13;7.65;;;4.87;;
60582;SDS011;46415;47.536;19.066;2023-03-05T11:46:21;8.93;;;5.37;;
60582;SDS011;46415;47.536;19.066;2023-03-05T11:49:25;9.32;;;4.80;;
60582;SDS011;46415;47.536;19.066;2023-03-05T11:52:45;7.65;;;4.68;;
60582;SDS011;46415;47.536;19.066;2023-03-05T11:59:24;6.68;;;4.95;;
60582;SDS011;46415;47.536;19.066;2023-03-05T12:02:31;9.73;;;5.45;;
60582;SDS011;46415;47.536;19.066;2023-03-05T12:05:34;9.82;;;5.30;;
60582;SDS011;46415;47.536;19.066;2023-03-05T12:08:43;6.70;;;4.45;;
60582;SDS011;46415;47.536;19.066;2023-03-05T12:11:51;9.05;;;4.60;;
60582;SDS011;46415;47.536;19.066;2023-03-05T12:21:42;5.68;;;5.03;;
60582;SDS011;46415;47.536;19.066;2023-03-05T12:24:46;6.95;;;4.15;;
60582;SDS011;46415;47.536;19.066;2023-03-05T12:27:48;7.55;;;4.43;;
60582;SDS011;46415;47.536;19.066;2023-03-05T12:30:52;6.03;;;3.90;;
60582;SDS011;46415;47.536;19.066;2023-03-05T12:33:55;6.30;;;3.67;;
60582;SDS011;46415;47.536;19.066;2023-03-05T12:36:59;8.00;;;4.72;;
60582;SDS011;46415;47.536;19.066;2023-03-05T12:49:43;5.93;;;4.43;;
60582;SDS011;46415;47.536;19.066;2023-03-05T12:52:47;5.12;;;3.80;;
60582;SDS011;46415;47.536;19.066;2023-03-05T12:55:53;8.07;;;5.07;;
60582;SDS011;46415;47.536;19.066;2023-03-05T12:59:01;7.47;;;4.60;;
60582;SDS011;46415;47.536;19.066;2023-03-05T13:02:13;7.35;;;5.25;;
60582;SDS011;46415;47.536;19.066;2023-03-05T13:05:23;5.65;;;4.28;;
60582;SDS011;46415;47.536;19.066;2023-03-05T13:08:38;4.32;;;3.55;;
60582;SDS011;46415;47.536;19.066;2023-03-05T13:11:41;5.95;;;3.37;;
60582;SDS011;46415;47.536;19.066;2023-03-05T13:14:47;6.07;;;3.65;;
60582;SDS011;46415;47.536;19.066;2023-03-05T13:17:59;5.90;;;3.60;;
60582;SDS011;46415;47.536;19.066;2023-03-05T13:21:14;4.90;;;3.47;;
60582;SDS011;46415;47.536;19.066;2023-03-05T13:24:18;5.32;;;3.10;;
60582;SDS011;46415;47.536;19.066;2023-03-05T13:27:28;6.28;;;3.87;;
60582;SDS011;46415;47.536;19.066;2023-03-05T13:30:32;5.60;;;3.55;;
60582;SDS011;46415;47.536;19.066;2023-03-05T13:33:36;5.97;;;3.15;;
60582;SDS011;46415;47.536;19.066;2023-03-05T13:36:39;4.47;;;3.40;;
60582;SDS011;46415;47.536;19.066;2023-03-05T13:39:58;4.03;;;3.50;;
60582;SDS011;46415;47.536;19.066;2023-03-05T13:43:21;6.22;;;3.40;;
60582;SDS011;46415;47.536;19.066;2023-03-05T13:46:28;6.68;;;3.95;;
60582;SDS011;46415;47.536;19.066;2023-03-05T13:49:35;4.93;;;3.45;;
60582;SDS011;46415;47.536;19.066;2023-03-05T13:52:39;4.57;;;3.22;;
60582;SDS011;46415;47.536;19.066;2023-03-05T13:55:41;4.00;;;3.50;;
60582;SDS011;46415;47.536;19.066;2023-03-05T13:58:55;5.95;;;2.92;;
60582;SDS011;46415;47.536;19.066;2023-03-05T14:01:59;6.65;;;2.90;;
60582;SDS011;46415;47.536;19.066;2023-03-05T14:05:12;6.95;;;2.80;;
60582;SDS011;46415;47.536;19.066;2023-03-05T14:08:20;5.07;;;3.45;;
60582;SDS011;46415;47.536;19.066;2023-03-05T14:11:26;3.85;;;3.00;;
60582;SDS011;46415;47.536;19.066;2023-03-05T14:14:30;5.78;;;3.15;;
60582;SDS011;46415;47.536;19.066;2023-03-05T14:17:39;3.30;;;2.92;;
60582;SDS011;46415;47.536;19.066;2023-03-05T14:24:12;5.22;;;3.83;;
60582;SDS011;46415;47.536;19.066;2023-03-05T14:27:20;4.68;;;2.58;;
60582;SDS011;46415;47.536;19.066;2023-03-05T14:30:24;3.65;;;2.50;;
60582;SDS011;46415;47.536;19.066;2023-03-05T14:33:36;3.72;;;2.95;;
60582;SDS011;46415;47.536;19.066;2023-03-05T14:36:39;4.72;;;2.80;;
60582;SDS011;46415;47.536;19.066;2023-03-05T14:39:50;2.97;;;2.67;;
60582;SDS011;46415;47.536;19.066;2023-03-05T14:43:03;5.85;;;3.25;;
60582;SDS011;46415;47.536;19.066;2023-03-05T14:46:08;4.40;;;2.70;;
60582;SDS011;46415;47.536;19.066;2023-03-05T14:49:13;4.05;;;2.97;;
60582;SDS011;46415;47.536;19.066;2023-03-05T14:52:17;4.05;;;3.17;;
60582;SDS011;46415;47.536;19.066;2023-03-05T14:55:23;4.22;;;3.17;;
60582;SDS011;46415;47.536;19.066;2023-03-05T14:58:28;6.30;;;3.00;;
60582;SDS011;46415;47.536;19.066;2023-03-05T15:01:37;5.65;;;3.00;;
60582;SDS011;46415;47.536;19.066;2023-03-05T15:04:40;5.50;;;3.40;;
60582;SDS011;46415;47.536;19.066;2023-03-05T15:07:45;5.95;;;3.80;;
60582;SDS011;46415;47.536;19.066;2023-03-05T15:10:49;3.65;;;2.92;;
60582;SDS011;46415;47.536;19.066;2023-03-05T15:13:53;4.80;;;3.42;;
60582;SDS011;46415;47.536;19.066;2023-03-05T15:16:56;3.62;;;3.22;;
60582;SDS011;46415;47.536;19.066;2023-03-05T15:19:59;7.15;;;3.12;;
60582;SDS011;46415;47.536;19.066;2023-03-05T15:23:02;6.47;;;2.95;;
60582;SDS011;46415;47.536;19.066;2023-03-05T15:26:05;2.75;;;2.40;;
60582;SDS011;46415;47.536;19.066;2023-03-05T15:29:11;3.58;;;2.55;;
60582;SDS011;46415;47.536;19.066;2023-03-05T15:32:14;3.50;;;2.25;;
60582;SDS011;46415;47.536;19.066;2023-03-05T15:35:17;7.10;;;2.60;;
60582;SDS011;46415;47.536;19.066;2023-03-05T15:38:20;3.10;;;2.00;;
60582;SDS011;46415;47.536;19.066;2023-03-05T15:41:23;3.37;;;2.60;;
60582;SDS011;46415;47.536;19.066;2023-03-05T15:44:26;3.78;;;2.37;;
60582;SDS011;46415;47.536;19.066;2023-03-05T15:47:29;3.45;;;2.40;;
60582;SDS011;46415;47.536;19.066;2023-03-05T15:50:35;3.92;;;2.70;;
60582;SDS011;46415;47.536;19.066;2023-03-05T15:53:37;5.25;;;3.55;;
60582;SDS011;46415;47.536;19.066;2023-03-05T15:56:40;3.25;;;2.95;;
60582;SDS011;46415;47.536;19.066;2023-03-05T15:59:43;5.82;;;2.47;;
60582;SDS011;46415;47.536;19.066;2023-03-05T16:02:46;3.15;;;2.08;;
60582;SDS011;46415;47.536;19.066;2023-03-05T16:05:49;3.92;;;2.47;;
60582;SDS011;46415;47.536;19.066;2023-03-05T16:08:54;3.97;;;2.65;;
60582;SDS011;46415;47.536;19.066;2023-03-05T16:12:02;2.60;;;2.20;;
60582;SDS011;46415;47.536;19.066;2023-03-05T16:15:13;2.67;;;2.42;;
60582;SDS011;46415;47.536;19.066;2023-03-05T16:18:19;2.92;;;2.20;;
60582;SDS011;46415;47.536;19.066;2023-03-05T16:21:22;3.65;;;2.25;;
60582;SDS011;46415;47.536;19.066;2023-03-05T16:24:26;3.35;;;2.47;;
60582;SDS011;46415;47.536;19.066;2023-03-05T16:27:28;3.35;;;2.45;;
60582;SDS011;46415;47.536;19.066;2023-03-05T16:30:31;3.08;;;1.98;;
60582;SDS011;46415;47.536;19.066;2023-03-05T16:33:34;2.53;;;2.33;;
60582;SDS011;46415;47.536;19.066;2023-03-05T16:36:37;2.15;;;1.98;;
60582;SDS011;46415;47.536;19.066;2023-03-05T16:39:40;4.28;;;2.65;;
60582;SDS011;46415;47.536;19.066;2023-03-05T16:42:44;2.25;;;1.98;;
60582;SDS011;46415;47.536;19.066;2023-03-05T16:45:46;1.75;;;1.62;;
60582;SDS011;46415;47.536;19.066;2023-03-05T16:48:49;1.30;;;1.25;;
60582;SDS011;46415;47.536;19.066;2023-03-05T16:51:52;4.75;;;1.87;;
60582;SDS011;46415;47.536;19.066;2023-03-05T16:54:55;3.97;;;1.62;;
60582;SDS011;46415;47.536;19.066;2023-03-05T16:57:57;1.02;;;1.02;;
60582;SDS011;46415;47.536;19.066;2023-03-05T17:01:00;6.32;;;1.90;;
60582;SDS011;46415;47.536;19.066;2023-03-05T17:04:05;2.33;;;1.30;;
60582;SDS011;46415;47.536;19.066;2023-03-05T17:07:09;1.48;;;1.05;;
60582;SDS011;46415;47.536;19.066;2023-03-05T17:10:12;2.45;;;1.40;;
60582;SDS011;46415;47.536;19.066;2023-03-05T17:13:15;2.78;;;1.55;;
60582;SDS011;46415;47.536;19.066;2023-03-05T17:16:18;3.25;;;1.50;;
60582;SDS011;46415;47.536;19.066;2023-03-05T17:19:22;1.95;;;1.62;;
60582;SDS011;46415;47.536;19.066;2023-03-05T17:22:24;1.62;;;1.52;;
60582;SDS011;46415;47.536;19.066;2023-03-05T17:25:27;3.70;;;2.20;;
60582;SDS011;46415;47.536;19.066;2023-03-05T17:28:30;1.30;;;1.08;;
60582;SDS011;46415;47.536;19.066;2023-03-05T17:31:34;1.42;;;1.33;;
60582;SDS011;46415;47.536;19.066;2023-03-05T17:34:37;4.43;;;1.50;;
60582;SDS011;46415;47.536;19.066;2023-03-05T17:37:39;4.05;;;1.85;;
60582;SDS011;46415;47.536;19.066;2023-03-05T17:40:42;1.87;;;1.50;;
60582;SDS011;46415;47.536;19.066;2023-03-05T17:43:45;1.48;;;1.17;;
60582;SDS011;46415;47.536;19.066;2023-03-05T17:46:48;2.03;;;1.60;;
60582;SDS011;46415;47.536;19.066;2023-03-05T17:49:51;3.40;;;2.03;;
60582;SDS011;46415;47.536;19.066;2023-03-05T17:52:53;4.00;;;2.30;;
60582;SDS011;46415;47.536;19.066;2023-03-05T17:55:56;4.05;;;1.73;;
60582;SDS011;46415;47.536;19.066;2023-03-05T17:58:59;2.55;;;1.33;;
60582;SDS011;46415;47.536;19.066;2023-03-05T18:02:02;1.80;;;1.70;;
60582;SDS011;46415;47.536;19.066;2023-03-05T18:05:05;1.73;;;1.62;;
60582;SDS011;46415;47.536;19.066;2023-03-05T18:08:08;4.37;;;1.95;;
60582;SDS011;46415;47.536;19.066;2023-03-05T18:11:12;1.77;;;1.67;;
60582;SDS011;46415;47.536;19.066;2023-03-05T18:14:15;4.20;;;2.53;;
60582;SDS011;46415;47.536;19.066;2023-03-05T18:17:18;2.50;;;1.90;;
60582;SDS011;46415;47.536;19.066;2023-03-05T18:23:33;2.90;;;2.15;;
60582;SDS011;46415;47.536;19.066;2023-03-05T18:26:37;4.50;;;2.40;;
60582;SDS011;46415;47.536;19.066;2023-03-05T18:29:40;4.65;;;2.05;;
60582;SDS011;46415;47.536;19.066;2023-03-05T18:32:43;2.10;;;1.40;;
60582;SDS011;46415;47.536;19.066;2023-03-05T18:35:47;2.08;;;1.40;;
60582;SDS011;46415;47.536;19.066;2023-03-05T18:38:53;4.22;;;1.75;;
60582;SDS011;46415;47.536;19.066;2023-03-05T18:41:56;1.80;;;1.70;;
60582;SDS011;46415;47.536;19.066;2023-03-05T18:44:59;1.65;;;1.52;;
60582;SDS011;46415;47.536;19.066;2023-03-05T18:48:02;1.65;;;1.52;;
60582;SDS011;46415;47.536;19.066;2023-03-05T18:51:05;2.35;;;1.62;;
60582;SDS011;46415;47.536;19.066;2023-03-05T18:54:14;3.42;;;2.40;;
60582;SDS011;46415;47.536;19.066;2023-03-05T18:57:16;2.17;;;1.95;;
60582;SDS011;46415;47.536;19.066;2023-03-05T19:00:23;1.77;;;1.67;;
60582;SDS011;46415;47.536;19.066;2023-03-05T19:03:28;2.47;;;1.80;;
60582;SDS011;46415;47.536;19.066;2023-03-05T19:06:32;1.73;;;1.50;;
60582;SDS011;46415;47.536;19.066;2023-03-05T19:09:57;2.00;;;1.85;;
60582;SDS011;46415;47.536;19.066;2023-03-05T19:16:41;3.15;;;2.60;;
60582;SDS011;46415;47.536;19.066;2023-03-05T19:19:49;3.62;;;2.05;;
60582;SDS011;46415;47.536;19.066;2023-03-05T19:22:53;2.53;;;1.83;;
60582;SDS011;46415;47.536;19.066;2023-03-05T19:25:57;2.62;;;1.83;;